createdAt,value
2023-08-24T00:01:14.643Z,16.98
2023-08-24T00:03:43.722Z,17.02
2023-08-24T00:06:12.969Z,17.07
2023-08-24T00:08:41.852Z,17.12
2023-08-24T00:11:13.226Z,17.15
2023-08-24T00:13:51.005Z,17.15
2023-08-24T00:16:21.025Z,17.15
2023-08-24T00:18:50.040Z,17.15
2023-08-24T00:21:20.835Z,17.15
2023-08-24T00:23:49.584Z,17.14
2023-08-24T00:26:21.258Z,17.13
2023-08-24T00:28:49.688Z,17.13
2023-08-24T00:31:18.866Z,17.11
2023-08-24T00:33:47.578Z,17.05
2023-08-24T00:36:16.865Z,17.04
2023-08-24T00:38:45.835Z,17.06
2023-08-24T00:41:15.380Z,17.07
2023-08-24T00:43:44.084Z,17.06
2023-08-24T00:46:12.705Z,17.00
2023-08-24T00:48:41.409Z,17.00
2023-08-24T00:51:10.199Z,17.01
2023-08-24T00:53:39.576Z,17.01
2023-08-24T00:56:08.116Z,17.03
2023-08-24T00:58:36.859Z,17.02
2023-08-24T01:01:06.172Z,17.02
2023-08-24T01:03:34.811Z,17.02
2023-08-24T01:06:03.954Z,16.99
2023-08-24T01:08:32.797Z,16.96
2023-08-24T01:11:47.209Z,16.95
2023-08-24T01:14:21.658Z,16.93
2023-08-24T01:16:55.252Z,16.90
2023-08-24T01:19:50.680Z,16.90
2023-08-24T01:22:35.188Z,16.92
2023-08-24T01:25:25.022Z,16.91
2023-08-24T01:27:55.316Z,16.90
2023-08-24T01:30:23.889Z,16.89
2023-08-24T01:32:52.541Z,16.88
2023-08-24T01:35:21.442Z,16.84
2023-08-24T01:37:50.688Z,16.81
2023-08-24T01:40:29.366Z,16.75
2023-08-24T01:43:04.861Z,16.68
2023-08-24T01:45:35.290Z,16.65
2023-08-24T01:48:05.543Z,16.58
2023-08-24T01:50:34.923Z,16.54
2023-08-24T01:53:04.615Z,16.48
2023-08-24T01:55:33.218Z,16.44
2023-08-24T01:58:01.940Z,16.43
2023-08-24T02:00:30.662Z,16.43
2023-08-24T02:02:59.716Z,16.45
2023-08-24T02:05:30.355Z,16.43
2023-08-24T02:07:59.429Z,16.37
2023-08-24T02:10:27.906Z,16.31
2023-08-24T02:12:56.608Z,16.29
2023-08-24T02:15:25.181Z,16.26
2023-08-24T02:17:54.041Z,16.27
2023-08-24T02:20:22.707Z,16.29
2023-08-24T02:22:52.220Z,16.29
2023-08-24T02:25:20.917Z,16.28
2023-08-24T02:27:50.658Z,16.28
2023-08-24T02:30:19.524Z,16.29
2023-08-24T02:32:48.119Z,16.29
2023-08-24T02:35:16.752Z,16.29
2023-08-24T02:37:45.520Z,16.31
2023-08-24T02:40:14.101Z,16.31
2023-08-24T02:42:42.803Z,16.32
2023-08-24T02:45:12.108Z,16.31
2023-08-24T02:47:40.982Z,16.25
2023-08-24T02:50:10.041Z,16.20
2023-08-24T02:52:39.251Z,16.18
2023-08-24T02:55:08.390Z,16.12
2023-08-24T02:57:36.857Z,16.10
2023-08-24T03:00:08.260Z,16.11
2023-08-24T03:02:37.956Z,16.09
2023-08-24T03:05:07.186Z,16.01
2023-08-24T03:07:37.646Z,15.95
2023-08-24T03:10:06.666Z,15.92
2023-08-24T03:12:35.771Z,15.86
2023-08-24T03:15:11.133Z,15.79
2023-08-24T03:17:43.529Z,15.77
2023-08-24T03:20:12.523Z,15.74
2023-08-24T03:22:42.577Z,15.71
2023-08-24T03:25:11.426Z,15.68
2023-08-24T03:27:39.779Z,15.64
2023-08-24T03:30:11.804Z,15.61
2023-08-24T03:32:44.717Z,15.62
2023-08-24T03:35:13.457Z,15.63
2023-08-24T03:37:42.353Z,15.61
2023-08-24T03:40:11.497Z,15.59
2023-08-24T03:42:40.440Z,15.62
2023-08-24T03:45:09.613Z,15.65
2023-08-24T03:47:38.294Z,15.64
2023-08-24T03:50:07.430Z,15.65
2023-08-24T03:52:35.884Z,15.63
2023-08-24T03:55:04.836Z,15.65
2023-08-24T03:57:33.537Z,15.68
2023-08-24T04:00:07.858Z,15.71
2023-08-24T04:02:36.753Z,15.75
2023-08-24T04:05:05.768Z,15.76
2023-08-24T04:07:37.717Z,15.76
2023-08-24T04:10:07.065Z,15.70
2023-08-24T04:12:36.518Z,15.66
2023-08-24T04:15:06.236Z,15.66
2023-08-24T04:17:34.595Z,15.71
2023-08-24T04:20:03.407Z,15.76
2023-08-24T04:22:31.770Z,15.85
2023-08-24T04:25:01.438Z,15.93
2023-08-24T04:27:30.101Z,15.98
2023-08-24T04:29:58.802Z,15.98
2023-08-24T04:32:29.034Z,15.99
2023-08-24T04:34:57.873Z,16.02
2023-08-24T04:37:26.586Z,16.04
2023-08-24T04:39:55.254Z,16.08
2023-08-24T04:42:23.870Z,16.13
2023-08-24T04:44:52.696Z,16.21
2023-08-24T04:47:21.422Z,16.33
2023-08-24T04:49:50.118Z,16.47
2023-08-24T04:52:18.728Z,16.56
2023-08-24T04:54:47.916Z,16.61
2023-08-24T04:57:16.449Z,16.70
2023-08-24T04:59:45.633Z,16.80
2023-08-24T05:02:14.138Z,16.83
2023-08-24T05:04:42.900Z,16.83
2023-08-24T05:07:11.632Z,16.89
2023-08-24T05:09:40.314Z,17.00
2023-08-24T05:12:09.475Z,17.09
2023-08-24T05:14:38.218Z,17.19
2023-08-24T05:17:06.583Z,17.36
2023-08-24T05:19:35.041Z,17.51
2023-08-24T05:22:04.066Z,17.69
2023-08-24T05:24:32.997Z,17.90
2023-08-24T05:27:01.661Z,18.08
2023-08-24T05:29:30.117Z,18.28
2023-08-24T05:31:58.727Z,18.38
2023-08-24T05:34:27.304Z,18.50
2023-08-24T05:36:58.850Z,18.62
2023-08-24T05:39:27.499Z,18.86
2023-08-24T05:41:56.056Z,19.10
2023-08-24T05:44:25.129Z,19.32
2023-08-24T05:46:53.845Z,19.64
2023-08-24T05:49:22.717Z,20.02
2023-08-24T05:51:52.488Z,20.23
2023-08-24T05:54:21.453Z,20.36
2023-08-24T05:56:50.587Z,20.45
2023-08-24T05:59:19.183Z,20.44
2023-08-24T06:01:47.757Z,20.33
2023-08-24T06:04:16.782Z,20.37
2023-08-24T06:06:48.253Z,20.45
2023-08-24T06:09:23.272Z,20.61
2023-08-24T06:12:36.129Z,20.80
2023-08-24T06:15:20.753Z,21.16
2023-08-24T06:17:50.141Z,21.45
2023-08-24T06:20:22.917Z,21.68
2023-08-24T06:22:51.626Z,21.83
2023-08-24T06:25:20.709Z,21.85
2023-08-24T06:27:50.367Z,21.84
2023-08-24T06:30:19.823Z,21.81
2023-08-24T06:32:48.531Z,21.68
2023-08-24T06:35:17.592Z,21.55
2023-08-24T06:37:46.473Z,21.40
2023-08-24T06:40:15.785Z,21.30
2023-08-24T06:42:44.593Z,21.44
2023-08-24T06:45:13.434Z,21.57
2023-08-24T06:47:42.269Z,21.70
2023-08-24T06:50:11.483Z,21.75
2023-08-24T06:52:40.173Z,21.74
2023-08-24T06:55:13.392Z,21.72
2023-08-24T06:57:56.322Z,21.81
2023-08-24T07:00:26.996Z,21.78
2023-08-24T07:02:55.469Z,21.85
2023-08-24T07:05:24.664Z,22.07
2023-08-24T07:07:56.709Z,22.28
2023-08-24T07:10:25.672Z,22.58
2023-08-24T07:12:54.128Z,22.81
2023-08-24T07:15:22.446Z,22.92
2023-08-24T07:17:51.724Z,23.16
2023-08-24T07:20:21.549Z,23.57
2023-08-24T07:22:52.247Z,24.06
2023-08-24T07:25:25.121Z,24.42
2023-08-24T07:27:59.800Z,25.07
2023-08-24T07:30:34.044Z,25.47
2023-08-24T07:33:07.787Z,25.70
2023-08-24T07:35:36.809Z,25.81
2023-08-24T07:38:06.179Z,26.31
2023-08-24T07:40:34.869Z,26.28
2023-08-24T07:43:04.112Z,25.92
2023-08-24T07:45:35.052Z,25.63
2023-08-24T07:48:04.088Z,25.69
2023-08-24T07:50:33.533Z,27.15
2023-08-24T07:53:06.071Z,28.87
2023-08-24T07:55:38.096Z,30.95
2023-08-24T07:58:11.401Z,33.54
2023-08-24T08:00:42.418Z,34.19
2023-08-24T08:03:14.342Z,33.47
2023-08-24T08:05:42.984Z,32.36
2023-08-24T08:08:12.664Z,31.35
2023-08-24T08:10:42.631Z,30.28
2023-08-24T08:13:14.815Z,29.63
2023-08-24T08:15:47.835Z,29.16
2023-08-24T08:18:16.738Z,28.96
2023-08-24T08:20:45.615Z,29.77
2023-08-24T08:23:14.424Z,30.42
2023-08-24T08:25:43.930Z,31.08
2023-08-24T08:28:12.761Z,31.58
2023-08-24T08:30:41.894Z,32.71
2023-08-24T08:33:11.076Z,33.71
2023-08-24T08:35:41.325Z,34.16
2023-08-24T08:38:10.004Z,34.77
2023-08-24T08:40:39.178Z,36.14
2023-08-24T08:43:07.757Z,38.26
2023-08-24T08:45:36.454Z,39.30
2023-08-24T08:48:06.672Z,40.58
2023-08-24T08:50:36.885Z,41.46
2023-08-24T08:53:05.461Z,42.05
2023-08-24T08:55:34.143Z,42.09
2023-08-24T08:58:05.438Z,42.41
2023-08-24T09:00:34.853Z,42.25
2023-08-24T09:03:05.605Z,40.34
2023-08-24T09:05:36.955Z,37.86
2023-08-24T09:08:06.885Z,36.21
2023-08-24T09:10:35.572Z,35.29
2023-08-24T09:13:04.796Z,34.31
2023-08-24T09:15:37.837Z,33.56
2023-08-24T09:18:06.832Z,35.07
2023-08-24T09:20:47.063Z,35.07
2023-08-24T09:23:22.561Z,34.73
2023-08-24T09:25:51.538Z,35.89
2023-08-24T09:28:26.494Z,34.66
2023-08-24T09:31:25.698Z,33.49
2023-08-24T09:34:01.783Z,32.22
2023-08-24T09:36:37.077Z,31.54
2023-08-24T09:39:06.512Z,31.12
2023-08-24T09:41:43.161Z,30.55
2023-08-24T09:44:13.886Z,31.23
2023-08-24T09:46:45.230Z,34.24
2023-08-24T09:49:14.440Z,34.04
2023-08-24T09:51:46.462Z,32.92
2023-08-24T09:54:22.622Z,31.81
2023-08-24T09:56:54.450Z,31.01
2023-08-24T09:59:36.738Z,30.65
2023-08-24T10:02:17.008Z,30.37
2023-08-24T10:04:46.254Z,30.21
2023-08-24T10:07:22.277Z,30.70
2023-08-24T10:10:04.671Z,32.05
2023-08-24T10:12:40.400Z,33.93
2023-08-24T10:15:12.369Z,37.60
2023-08-24T10:17:41.401Z,40.57
2023-08-24T10:20:12.044Z,42.65
2023-08-24T10:22:42.863Z,44.44
2023-08-24T10:25:12.449Z,45.15
2023-08-24T10:27:44.781Z,45.28
2023-08-24T10:30:23.306Z,44.63
2023-08-24T10:32:55.199Z,43.09
2023-08-24T10:35:25.808Z,42.45
2023-08-24T10:37:55.139Z,41.01
2023-08-24T10:40:34.658Z,39.48
2023-08-24T10:43:07.375Z,37.85
2023-08-24T10:46:02.028Z,36.26
2023-08-24T10:48:50.840Z,35.16
2023-08-24T10:51:23.009Z,34.64
2023-08-24T10:53:55.806Z,33.71
2023-08-24T10:56:42.458Z,32.59
2023-08-24T10:59:17.774Z,31.84
2023-08-24T11:01:56.724Z,32.19
2023-08-24T11:04:26.892Z,35.88
2023-08-24T11:06:57.834Z,39.29
2023-08-24T11:09:28.899Z,41.80
2023-08-24T11:12:06.697Z,42.28
2023-08-24T11:14:56.063Z,40.19
2023-08-24T11:17:25.005Z,37.59
2023-08-24T11:19:56.081Z,35.97
2023-08-24T11:22:26.895Z,34.92
2023-08-24T11:24:55.603Z,34.09
2023-08-24T11:27:24.880Z,33.56
2023-08-24T11:30:01.813Z,33.09
2023-08-24T11:32:30.966Z,32.57
2023-08-24T11:34:59.643Z,32.34
2023-08-24T11:37:28.310Z,33.27
2023-08-24T11:39:57.096Z,35.88
2023-08-24T11:42:25.759Z,38.39
2023-08-24T11:44:54.638Z,40.27
2023-08-24T11:47:24.970Z,42.30
2023-08-24T11:49:53.621Z,43.79
2023-08-24T11:52:22.134Z,45.38
2023-08-24T11:54:52.952Z,46.09
2023-08-24T11:57:21.585Z,46.34
2023-08-24T11:59:50.312Z,46.55
2023-08-24T12:02:19.528Z,44.46
2023-08-24T12:04:50.190Z,43.24
2023-08-24T12:07:19.629Z,41.20
2023-08-24T12:09:48.613Z,39.14
2023-08-24T12:12:22.275Z,37.49
2023-08-24T12:14:51.372Z,36.45
2023-08-24T12:17:20.364Z,35.49
2023-08-24T12:20:01.771Z,34.87
2023-08-24T12:22:31.054Z,35.84
2023-08-24T12:24:59.721Z,36.35
2023-08-24T12:27:28.824Z,35.73
2023-08-24T12:30:08.889Z,35.09
2023-08-24T12:32:51.257Z,34.24
2023-08-24T12:35:20.497Z,33.49
2023-08-24T12:37:49.339Z,33.00
2023-08-24T12:40:24.197Z,32.70
2023-08-24T12:42:56.134Z,32.17
2023-08-24T12:45:28.624Z,31.83
2023-08-24T12:47:58.495Z,31.63
2023-08-24T12:50:30.371Z,31.32
2023-08-24T12:53:01.542Z,30.74
2023-08-24T12:55:31.035Z,30.42
2023-08-24T12:58:04.720Z,30.33
2023-08-24T13:00:33.835Z,30.24
2023-08-24T13:03:05.438Z,30.26
2023-08-24T13:05:35.303Z,30.03
2023-08-24T13:08:04.231Z,29.62
2023-08-24T13:10:32.941Z,29.49
2023-08-24T13:13:01.905Z,29.26
2023-08-24T13:15:34.718Z,28.99
2023-08-24T13:18:04.106Z,28.81
2023-08-24T13:20:32.811Z,28.75
2023-08-24T13:23:01.499Z,28.39
2023-08-24T13:25:34.541Z,28.02
2023-08-24T13:28:03.753Z,27.84
2023-08-24T13:30:32.424Z,27.74
2023-08-24T13:33:00.978Z,27.47
2023-08-24T13:35:29.829Z,27.28
2023-08-24T13:37:58.545Z,27.03
2023-08-24T13:40:27.361Z,26.81
2023-08-24T13:42:55.930Z,26.67
2023-08-24T13:45:24.858Z,26.50
2023-08-24T13:47:53.720Z,26.43
2023-08-24T13:50:22.207Z,26.33
2023-08-24T13:52:51.376Z,26.23
2023-08-24T13:55:20.102Z,25.99
2023-08-24T13:57:49.147Z,25.73
2023-08-24T14:00:18.184Z,25.55
2023-08-24T14:02:49.764Z,25.48
2023-08-24T14:05:18.991Z,25.45
2023-08-24T14:07:47.648Z,25.47
2023-08-24T14:10:16.216Z,25.34
2023-08-24T14:12:44.780Z,25.34
2023-08-24T14:15:13.308Z,25.48
2023-08-24T14:17:42.004Z,25.67
2023-08-24T14:20:10.997Z,25.69
2023-08-24T14:22:42.529Z,25.63
2023-08-24T14:25:10.967Z,25.74
2023-08-24T14:27:42.585Z,25.75
2023-08-24T14:30:13.933Z,25.75
2023-08-24T14:32:44.645Z,25.81
2023-08-24T14:35:13.488Z,25.87
2023-08-24T14:37:42.569Z,26.01
2023-08-24T14:40:11.908Z,26.14
2023-08-24T14:42:40.258Z,26.07
2023-08-24T14:45:09.259Z,25.88
2023-08-24T14:47:37.814Z,25.69
2023-08-24T14:50:07.544Z,25.62
2023-08-24T14:52:39.514Z,25.46
2023-08-24T14:55:10.637Z,25.23
2023-08-24T14:57:39.076Z,24.95
2023-08-24T15:00:11.434Z,24.67
2023-08-24T15:02:41.111Z,24.45
2023-08-24T15:05:09.648Z,24.25
2023-08-24T15:07:38.195Z,24.08
2023-08-24T15:10:07.787Z,24.03
2023-08-24T15:12:36.691Z,24.09
2023-08-24T15:15:07.971Z,24.21
2023-08-24T15:17:37.661Z,24.35
2023-08-24T15:20:09.678Z,24.50
2023-08-24T15:22:38.371Z,24.56
2023-08-24T15:25:08.124Z,24.52
2023-08-24T15:27:37.663Z,24.48
2023-08-24T15:30:09.791Z,24.47
2023-08-24T15:32:38.519Z,24.54
2023-08-24T15:35:07.784Z,24.50
2023-08-24T15:37:36.886Z,24.38
2023-08-24T15:40:06.069Z,24.21
2023-08-24T15:42:34.691Z,24.03
2023-08-24T15:45:03.614Z,23.74
2023-08-24T15:47:32.464Z,23.48
2023-08-24T15:50:01.605Z,23.35
2023-08-24T15:52:30.387Z,23.14
2023-08-24T15:54:59.151Z,22.99
2023-08-24T15:57:27.878Z,22.89
2023-08-24T15:59:56.942Z,22.82
2023-08-24T16:02:25.784Z,22.77
2023-08-24T16:04:57.050Z,22.68
2023-08-24T16:07:25.799Z,22.59
2023-08-24T16:09:54.373Z,22.50
2023-08-24T16:12:24.354Z,22.37
2023-08-24T16:14:58.512Z,22.26
2023-08-24T16:17:27.083Z,22.16
2023-08-24T16:19:55.811Z,22.05
2023-08-24T16:22:24.358Z,21.95
2023-08-24T16:24:52.948Z,21.89
2023-08-24T16:27:21.477Z,21.86
2023-08-24T16:29:49.879Z,21.82
2023-08-24T16:32:18.635Z,21.82
2023-08-24T16:34:47.551Z,21.83
2023-08-24T16:37:16.617Z,21.79
2023-08-24T16:39:45.533Z,21.72
2023-08-24T16:42:19.851Z,21.69
2023-08-24T16:44:48.939Z,21.64
2023-08-24T16:47:17.965Z,21.61
2023-08-24T16:49:46.634Z,21.57
2023-08-24T16:52:15.163Z,21.49
2023-08-24T16:54:43.980Z,21.40
2023-08-24T16:57:12.655Z,21.29
2023-08-24T16:59:41.070Z,21.17
2023-08-24T17:02:10.464Z,21.01
2023-08-24T17:04:38.950Z,20.88
2023-08-24T17:07:07.853Z,20.69
2023-08-24T17:09:36.691Z,20.54
2023-08-24T17:12:05.514Z,20.32
2023-08-24T17:14:33.945Z,20.12
2023-08-24T17:17:02.491Z,20.01
2023-08-24T17:19:33.838Z,19.91
2023-08-24T17:22:02.761Z,19.82
2023-08-24T17:24:31.542Z,19.73
2023-08-24T17:27:03.931Z,19.57
2023-08-24T17:29:32.832Z,19.34
2023-08-24T17:32:01.386Z,19.20
2023-08-24T17:34:30.002Z,19.07
2023-08-24T17:36:58.652Z,18.94
2023-08-24T17:39:29.295Z,18.83
2023-08-24T17:41:57.971Z,18.73
2023-08-24T17:44:27.799Z,18.67
2023-08-24T17:46:56.850Z,18.64
2023-08-24T17:49:25.580Z,18.59
2023-08-24T17:51:54.170Z,18.50
2023-08-24T17:54:25.876Z,18.46
2023-08-24T17:56:55.208Z,18.41
2023-08-24T17:59:23.835Z,18.36
2023-08-24T18:01:52.359Z,18.30
2023-08-24T18:04:21.437Z,18.23
2023-08-24T18:06:53.136Z,18.14
2023-08-24T18:09:21.688Z,18.05
2023-08-24T18:11:50.205Z,17.96
2023-08-24T18:14:19.090Z,17.89
2023-08-24T18:16:48.837Z,17.84
2023-08-24T18:19:17.816Z,17.76
2023-08-24T18:21:46.515Z,17.66
2023-08-24T18:24:14.983Z,17.61
2023-08-24T18:26:43.757Z,17.57
2023-08-24T18:29:12.458Z,17.52
2023-08-24T18:31:42.282Z,17.46
2023-08-24T18:34:10.802Z,17.42
2023-08-24T18:36:39.921Z,17.37
2023-08-24T18:39:09.388Z,17.32
2023-08-24T18:41:38.019Z,17.26
2023-08-24T18:44:06.487Z,17.20
2023-08-24T18:46:35.133Z,17.15
2023-08-24T18:49:04.550Z,17.10
2023-08-24T18:51:33.164Z,17.06
2023-08-24T18:54:01.899Z,17.02
2023-08-24T18:56:30.564Z,16.98
2023-08-24T18:58:58.970Z,16.94
2023-08-24T19:01:27.668Z,16.90
2023-08-24T19:03:56.189Z,16.83
2023-08-24T19:06:30.915Z,16.77
2023-08-24T19:09:07.762Z,16.69
2023-08-24T19:11:36.906Z,16.61
2023-08-24T19:14:05.869Z,16.49
2023-08-24T19:16:34.361Z,16.39
2023-08-24T19:19:03.019Z,16.31
2023-08-24T19:21:31.636Z,16.27
2023-08-24T19:24:00.186Z,16.22
2023-08-24T19:26:28.932Z,16.21
2023-08-24T19:28:57.722Z,16.19
2023-08-24T19:31:26.805Z,16.19
2023-08-24T19:33:55.396Z,16.19
2023-08-24T19:36:24.208Z,16.18
2023-08-24T19:38:52.747Z,16.17
2023-08-24T19:41:21.346Z,16.15
2023-08-24T19:43:50.113Z,16.14
2023-08-24T19:46:18.784Z,16.11
2023-08-24T19:48:47.840Z,16.08
2023-08-24T19:51:16.349Z,16.06
2023-08-24T19:53:45.145Z,16.03
2023-08-24T19:56:13.895Z,16.00
2023-08-24T19:58:42.652Z,15.97
2023-08-24T20:01:11.883Z,15.95
2023-08-24T20:03:40.999Z,15.92
2023-08-24T20:06:26.863Z,15.85
2023-08-24T20:08:55.812Z,15.79
2023-08-24T20:11:31.699Z,15.73
2023-08-24T20:14:00.893Z,15.68
2023-08-24T20:16:29.606Z,15.63
2023-08-24T20:18:58.499Z,15.60
2023-08-24T20:21:33.574Z,15.58
2023-08-24T20:24:02.128Z,15.58
2023-08-24T20:26:30.554Z,15.58
2023-08-24T20:28:59.362Z,15.58
2023-08-24T20:31:28.652Z,15.60
2023-08-24T20:33:57.752Z,15.62
2023-08-24T20:36:27.146Z,15.62
2023-08-24T20:38:55.710Z,15.61
2023-08-24T20:41:24.258Z,15.60
2023-08-24T20:43:52.875Z,15.61
2023-08-24T20:46:21.588Z,15.62
2023-08-24T20:48:50.204Z,15.64
2023-08-24T20:51:18.780Z,15.64
2023-08-24T20:53:47.652Z,15.64
2023-08-24T20:56:17.252Z,15.63
2023-08-24T20:58:46.413Z,15.63
2023-08-24T21:01:14.967Z,15.65
2023-08-24T21:03:43.681Z,15.64
2023-08-24T21:06:12.239Z,15.63
2023-08-24T21:08:41.373Z,15.62
2023-08-24T21:11:11.190Z,15.61
2023-08-24T21:13:42.765Z,15.60
2023-08-24T21:16:30.669Z,15.60
2023-08-24T21:18:59.548Z,15.59
2023-08-24T21:21:28.180Z,15.59
2023-08-24T21:23:57.210Z,15.58
2023-08-24T21:26:27.256Z,15.57
2023-08-24T21:28:56.671Z,15.55
2023-08-24T21:31:25.958Z,15.55
2023-08-24T21:33:54.786Z,15.58
2023-08-24T21:36:23.341Z,15.60
2023-08-24T21:38:52.089Z,15.61
2023-08-24T21:41:20.553Z,15.61
2023-08-24T21:43:49.412Z,15.61
2023-08-24T21:46:18.368Z,15.61
2023-08-24T21:48:47.038Z,15.61
2023-08-24T21:51:15.563Z,15.61
2023-08-24T21:53:44.226Z,15.62
2023-08-24T21:56:12.877Z,15.62
2023-08-24T21:58:41.398Z,15.62
2023-08-24T22:01:10.113Z,15.61
2023-08-24T22:03:38.728Z,15.59
2023-08-24T22:06:07.249Z,15.57
2023-08-24T22:08:36.392Z,15.54
2023-08-24T22:11:04.957Z,15.51
2023-08-24T22:13:33.558Z,15.51
2023-08-24T22:16:02.124Z,15.53
2023-08-24T22:18:30.732Z,15.56
2023-08-24T22:20:59.244Z,15.59
2023-08-24T22:23:27.945Z,15.62
2023-08-24T22:25:56.462Z,15.66
2023-08-24T22:28:25.021Z,15.68
2023-08-24T22:30:54.908Z,15.69
2023-08-24T22:33:23.495Z,15.68
2023-08-24T22:35:53.199Z,15.69
2023-08-24T22:38:22.523Z,15.72
2023-08-24T22:40:51.227Z,15.76
2023-08-24T22:43:19.666Z,15.81
2023-08-24T22:45:48.302Z,15.85
2023-08-24T22:48:17.963Z,15.88
2023-08-24T22:50:47.415Z,15.89
2023-08-24T22:53:16.830Z,15.93
2023-08-24T22:55:47.309Z,15.95
2023-08-24T22:58:16.518Z,15.97
2023-08-24T23:00:45.109Z,15.94
2023-08-24T23:03:13.765Z,15.89
2023-08-24T23:05:42.527Z,15.86
2023-08-24T23:08:11.706Z,15.85
2023-08-24T23:10:40.309Z,15.86
2023-08-24T23:13:08.888Z,15.87
2023-08-24T23:15:37.543Z,15.90
2023-08-24T23:18:06.580Z,15.92
2023-08-24T23:20:36.451Z,15.94
2023-08-24T23:23:05.228Z,15.94
2023-08-24T23:25:34.213Z,15.92
2023-08-24T23:28:02.889Z,15.92
2023-08-24T23:30:31.308Z,15.92
2023-08-24T23:32:59.975Z,15.91
2023-08-24T23:35:28.724Z,15.89
2023-08-24T23:37:57.220Z,15.89
2023-08-24T23:40:25.531Z,15.88
2023-08-24T23:42:54.228Z,15.88
2023-08-24T23:45:22.817Z,15.89
2023-08-24T23:47:51.704Z,15.91
2023-08-24T23:50:20.569Z,15.92
2023-08-24T23:52:49.435Z,15.92
2023-08-24T23:55:18.072Z,15.94
2023-08-24T23:57:46.771Z,15.94
